sensor_id;sensor_type;location;lat;lon;timestamp;P1;durP1;ratioP1;P2;durP2;ratioP2
86223;SDS011;76887;48.558;12.170;2024-03-22T00:01:39;26.40;;;15.85;;
86223;SDS011;76887;48.558;12.170;2024-03-22T00:04:05;28.42;;;18.15;;
86223;SDS011;76887;48.558;12.170;2024-03-22T00:06:30;26.88;;;16.25;;
86223;SDS011;76887;48.558;12.170;2024-03-22T00:08:56;30.70;;;18.92;;
86223;SDS011;76887;48.558;12.170;2024-03-22T00:11:21;27.25;;;17.30;;
86223;SDS011;76887;48.558;12.170;2024-03-22T00:13:47;24.35;;;15.50;;
86223;SDS011;76887;48.558;12.170;2024-03-22T00:16:12;33.28;;;20.20;;
86223;SDS011;76887;48.558;12.170;2024-03-22T00:18:38;26.60;;;16.48;;
86223;SDS011;76887;48.558;12.170;2024-03-22T00:21:04;21.35;;;13.02;;
86223;SDS011;76887;48.558;12.170;2024-03-22T00:23:29;19.52;;;11.88;;
86223;SDS011;76887;48.558;12.170;2024-03-22T00:25:56;26.13;;;15.85;;
86223;SDS011;76887;48.558;12.170;2024-03-22T00:28:21;26.63;;;16.33;;
86223;SDS011;76887;48.558;12.170;2024-03-22T00:30:47;19.02;;;12.02;;
86223;SDS011;76887;48.558;12.170;2024-03-22T00:33:12;23.80;;;15.07;;
86223;SDS011;76887;48.558;12.170;2024-03-22T00:35:38;21.25;;;13.00;;
86223;SDS011;76887;48.558;12.170;2024-03-22T00:38:03;24.33;;;14.93;;
86223;SDS011;76887;48.558;12.170;2024-03-22T00:40:29;23.80;;;14.50;;
86223;SDS011;76887;48.558;12.170;2024-03-22T00:42:54;22.17;;;13.35;;
86223;SDS011;76887;48.558;12.170;2024-03-22T00:45:20;21.23;;;12.77;;
86223;SDS011;76887;48.558;12.170;2024-03-22T00:47:46;23.73;;;15.77;;
86223;SDS011;76887;48.558;12.170;2024-03-22T00:50:11;18.95;;;12.20;;
86223;SDS011;76887;48.558;12.170;2024-03-22T00:52:38;25.08;;;15.93;;
86223;SDS011;76887;48.558;12.170;2024-03-22T00:55:04;19.85;;;12.20;;
86223;SDS011;76887;48.558;12.170;2024-03-22T00:57:30;21.83;;;13.38;;
86223;SDS011;76887;48.558;12.170;2024-03-22T00:59:56;18.10;;;11.23;;
86223;SDS011;76887;48.558;12.170;2024-03-22T01:02:21;21.50;;;11.77;;
86223;SDS011;76887;48.558;12.170;2024-03-22T01:04:48;32.20;;;18.42;;
86223;SDS011;76887;48.558;12.170;2024-03-22T01:07:13;29.15;;;18.55;;
86223;SDS011;76887;48.558;12.170;2024-03-22T01:09:39;27.52;;;17.30;;
86223;SDS011;76887;48.558;12.170;2024-03-22T01:12:05;30.85;;;18.33;;
86223;SDS011;76887;48.558;12.170;2024-03-22T01:14:31;18.58;;;11.35;;
86223;SDS011;76887;48.558;12.170;2024-03-22T01:16:56;19.52;;;12.93;;
86223;SDS011;76887;48.558;12.170;2024-03-22T01:19:22;24.27;;;14.52;;
86223;SDS011;76887;48.558;12.170;2024-03-22T01:21:48;27.52;;;15.98;;
86223;SDS011;76887;48.558;12.170;2024-03-22T01:24:14;25.55;;;15.90;;
86223;SDS011;76887;48.558;12.170;2024-03-22T01:26:40;21.98;;;12.77;;
86223;SDS011;76887;48.558;12.170;2024-03-22T01:29:05;23.08;;;13.63;;
86223;SDS011;76887;48.558;12.170;2024-03-22T01:31:31;19.90;;;12.50;;
86223;SDS011;76887;48.558;12.170;2024-03-22T01:33:56;24.52;;;13.98;;
86223;SDS011;76887;48.558;12.170;2024-03-22T01:36:22;20.92;;;12.13;;
86223;SDS011;76887;48.558;12.170;2024-03-22T01:38:47;24.45;;;15.20;;
86223;SDS011;76887;48.558;12.170;2024-03-22T01:41:13;26.38;;;15.32;;
86223;SDS011;76887;48.558;12.170;2024-03-22T01:43:38;24.95;;;13.70;;
86223;SDS011;76887;48.558;12.170;2024-03-22T01:46:04;27.75;;;16.67;;
86223;SDS011;76887;48.558;12.170;2024-03-22T01:48:33;26.60;;;15.73;;
86223;SDS011;76887;48.558;12.170;2024-03-22T01:50:59;25.00;;;14.88;;
86223;SDS011;76887;48.558;12.170;2024-03-22T01:53:25;22.33;;;13.63;;
86223;SDS011;76887;48.558;12.170;2024-03-22T01:55:51;20.40;;;12.63;;
86223;SDS011;76887;48.558;12.170;2024-03-22T01:58:17;18.60;;;11.23;;
86223;SDS011;76887;48.558;12.170;2024-03-22T02:00:43;22.08;;;13.15;;
86223;SDS011;76887;48.558;12.170;2024-03-22T02:03:09;18.58;;;11.18;;
86223;SDS011;76887;48.558;12.170;2024-03-22T02:05:35;27.10;;;15.70;;
86223;SDS011;76887;48.558;12.170;2024-03-22T02:08:00;26.23;;;15.77;;
86223;SDS011;76887;48.558;12.170;2024-03-22T02:10:26;18.60;;;11.02;;
86223;SDS011;76887;48.558;12.170;2024-03-22T02:12:51;20.90;;;12.63;;
86223;SDS011;76887;48.558;12.170;2024-03-22T02:15:17;27.75;;;16.40;;
86223;SDS011;76887;48.558;12.170;2024-03-22T02:22:59;20.23;;;11.98;;
86223;SDS011;76887;48.558;12.170;2024-03-22T02:25:24;22.67;;;13.77;;
86223;SDS011;76887;48.558;12.170;2024-03-22T02:27:50;21.92;;;13.80;;
86223;SDS011;76887;48.558;12.170;2024-03-22T02:30:16;27.50;;;14.95;;
86223;SDS011;76887;48.558;12.170;2024-03-22T02:32:42;27.40;;;14.35;;
86223;SDS011;76887;48.558;12.170;2024-03-22T02:35:08;20.63;;;11.77;;
86223;SDS011;76887;48.558;12.170;2024-03-22T02:37:33;19.92;;;12.80;;
86223;SDS011;76887;48.558;12.170;2024-03-22T02:39:59;24.63;;;12.98;;
86223;SDS011;76887;48.558;12.170;2024-03-22T02:42:24;24.33;;;15.25;;
86223;SDS011;76887;48.558;12.170;2024-03-22T02:44:50;19.45;;;11.10;;
86223;SDS011;76887;48.558;12.170;2024-03-22T02:47:16;22.42;;;13.27;;
86223;SDS011;76887;48.558;12.170;2024-03-22T02:49:41;24.15;;;14.30;;
86223;SDS011;76887;48.558;12.170;2024-03-22T02:52:07;18.77;;;11.82;;
86223;SDS011;76887;48.558;12.170;2024-03-22T02:54:32;20.75;;;13.05;;
86223;SDS011;76887;48.558;12.170;2024-03-22T02:56:58;25.17;;;14.32;;
86223;SDS011;76887;48.558;12.170;2024-03-22T02:59:26;26.70;;;14.85;;
86223;SDS011;76887;48.558;12.170;2024-03-22T03:01:52;22.88;;;13.27;;
86223;SDS011;76887;48.558;12.170;2024-03-22T03:04:17;21.58;;;13.55;;
86223;SDS011;76887;48.558;12.170;2024-03-22T03:06:43;23.23;;;13.02;;
86223;SDS011;76887;48.558;12.170;2024-03-22T03:09:11;27.85;;;16.23;;
86223;SDS011;76887;48.558;12.170;2024-03-22T03:11:38;23.77;;;14.85;;
86223;SDS011;76887;48.558;12.170;2024-03-22T03:14:04;23.52;;;13.73;;
86223;SDS011;76887;48.558;12.170;2024-03-22T03:16:29;20.65;;;10.65;;
86223;SDS011;76887;48.558;12.170;2024-03-22T03:18:55;18.63;;;11.35;;
86223;SDS011;76887;48.558;12.170;2024-03-22T03:21:20;19.60;;;12.00;;
86223;SDS011;76887;48.558;12.170;2024-03-22T03:23:46;21.08;;;12.20;;
86223;SDS011;76887;48.558;12.170;2024-03-22T03:26:12;25.45;;;14.25;;
86223;SDS011;76887;48.558;12.170;2024-03-22T03:28:38;22.75;;;13.80;;
86223;SDS011;76887;48.558;12.170;2024-03-22T03:31:04;21.30;;;12.30;;
86223;SDS011;76887;48.558;12.170;2024-03-22T03:33:30;21.08;;;12.18;;
86223;SDS011;76887;48.558;12.170;2024-03-22T03:35:55;28.35;;;16.50;;
86223;SDS011;76887;48.558;12.170;2024-03-22T03:38:21;18.45;;;10.77;;
86223;SDS011;76887;48.558;12.170;2024-03-22T03:40:47;19.73;;;12.02;;
86223;SDS011;76887;48.558;12.170;2024-03-22T03:43:13;22.40;;;12.73;;
86223;SDS011;76887;48.558;12.170;2024-03-22T03:45:39;25.05;;;14.80;;
86223;SDS011;76887;48.558;12.170;2024-03-22T03:48:04;22.52;;;13.13;;
86223;SDS011;76887;48.558;12.170;2024-03-22T03:50:30;17.38;;;11.63;;
86223;SDS011;76887;48.558;12.170;2024-03-22T03:52:56;19.83;;;12.25;;
86223;SDS011;76887;48.558;12.170;2024-03-22T03:55:24;18.75;;;11.07;;
86223;SDS011;76887;48.558;12.170;2024-03-22T03:57:50;22.65;;;12.98;;
86223;SDS011;76887;48.558;12.170;2024-03-22T04:00:17;22.75;;;13.85;;
86223;SDS011;76887;48.558;12.170;2024-03-22T04:02:44;18.98;;;10.85;;
86223;SDS011;76887;48.558;12.170;2024-03-22T04:05:09;22.10;;;12.70;;
86223;SDS011;76887;48.558;12.170;2024-03-22T04:07:35;26.77;;;16.45;;
86223;SDS011;76887;48.558;12.170;2024-03-22T04:10:00;21.42;;;13.23;;
86223;SDS011;76887;48.558;12.170;2024-03-22T04:12:26;22.30;;;12.73;;
86223;SDS011;76887;48.558;12.170;2024-03-22T04:14:52;20.52;;;10.93;;
86223;SDS011;76887;48.558;12.170;2024-03-22T04:17:18;23.80;;;12.45;;
86223;SDS011;76887;48.558;12.170;2024-03-22T04:19:43;27.77;;;16.50;;
86223;SDS011;76887;48.558;12.170;2024-03-22T04:22:09;17.88;;;9.75;;
86223;SDS011;76887;48.558;12.170;2024-03-22T04:24:34;22.50;;;13.38;;
86223;SDS011;76887;48.558;12.170;2024-03-22T04:27:00;23.77;;;13.63;;
86223;SDS011;76887;48.558;12.170;2024-03-22T04:29:26;24.92;;;13.95;;
86223;SDS011;76887;48.558;12.170;2024-03-22T04:31:51;23.30;;;13.60;;
86223;SDS011;76887;48.558;12.170;2024-03-22T04:34:17;19.33;;;11.50;;
86223;SDS011;76887;48.558;12.170;2024-03-22T04:36:42;19.10;;;11.98;;
86223;SDS011;76887;48.558;12.170;2024-03-22T04:39:08;17.48;;;10.70;;
86223;SDS011;76887;48.558;12.170;2024-03-22T04:41:35;20.13;;;12.38;;
86223;SDS011;76887;48.558;12.170;2024-03-22T04:44:00;20.00;;;12.70;;
86223;SDS011;76887;48.558;12.170;2024-03-22T04:46:26;22.02;;;13.07;;
86223;SDS011;76887;48.558;12.170;2024-03-22T04:48:52;22.88;;;12.65;;
86223;SDS011;76887;48.558;12.170;2024-03-22T04:51:17;17.75;;;10.27;;
86223;SDS011;76887;48.558;12.170;2024-03-22T04:53:43;17.90;;;10.88;;
86223;SDS011;76887;48.558;12.170;2024-03-22T04:56:09;19.20;;;10.60;;
86223;SDS011;76887;48.558;12.170;2024-03-22T04:58:34;17.77;;;10.23;;
86223;SDS011;76887;48.558;12.170;2024-03-22T05:01:00;18.13;;;10.90;;
86223;SDS011;76887;48.558;12.170;2024-03-22T05:03:26;19.90;;;11.32;;
86223;SDS011;76887;48.558;12.170;2024-03-22T05:05:51;23.13;;;12.98;;
86223;SDS011;76887;48.558;12.170;2024-03-22T05:08:17;19.83;;;11.63;;
86223;SDS011;76887;48.558;12.170;2024-03-22T05:10:42;22.67;;;13.38;;
86223;SDS011;76887;48.558;12.170;2024-03-22T05:13:08;17.67;;;11.05;;
86223;SDS011;76887;48.558;12.170;2024-03-22T05:15:33;25.23;;;15.13;;
86223;SDS011;76887;48.558;12.170;2024-03-22T05:17:59;17.65;;;10.73;;
86223;SDS011;76887;48.558;12.170;2024-03-22T05:20:25;17.55;;;10.40;;
86223;SDS011;76887;48.558;12.170;2024-03-22T05:22:51;14.68;;;9.15;;
86223;SDS011;76887;48.558;12.170;2024-03-22T05:25:16;17.70;;;10.70;;
86223;SDS011;76887;48.558;12.170;2024-03-22T05:27:42;18.10;;;10.35;;
86223;SDS011;76887;48.558;12.170;2024-03-22T05:30:11;18.90;;;11.75;;
86223;SDS011;76887;48.558;12.170;2024-03-22T05:32:38;24.13;;;13.90;;
86223;SDS011;76887;48.558;12.170;2024-03-22T05:35:04;19.17;;;11.65;;
86223;SDS011;76887;48.558;12.170;2024-03-22T05:37:30;19.90;;;11.93;;
86223;SDS011;76887;48.558;12.170;2024-03-22T05:39:56;23.30;;;12.30;;
86223;SDS011;76887;48.558;12.170;2024-03-22T05:42:22;24.05;;;13.63;;
86223;SDS011;76887;48.558;12.170;2024-03-22T05:44:47;18.67;;;10.32;;
86223;SDS011;76887;48.558;12.170;2024-03-22T05:47:13;17.98;;;10.30;;
86223;SDS011;76887;48.558;12.170;2024-03-22T05:49:39;17.80;;;11.07;;
86223;SDS011;76887;48.558;12.170;2024-03-22T05:52:04;18.90;;;10.93;;
86223;SDS011;76887;48.558;12.170;2024-03-22T05:54:30;17.45;;;10.63;;
86223;SDS011;76887;48.558;12.170;2024-03-22T05:56:55;22.48;;;12.00;;
86223;SDS011;76887;48.558;12.170;2024-03-22T05:59:21;21.73;;;13.18;;
86223;SDS011;76887;48.558;12.170;2024-03-22T06:01:47;24.13;;;14.75;;
86223;SDS011;76887;48.558;12.170;2024-03-22T06:04:12;27.35;;;15.77;;
86223;SDS011;76887;48.558;12.170;2024-03-22T06:06:38;27.52;;;15.55;;
86223;SDS011;76887;48.558;12.170;2024-03-22T06:09:04;30.17;;;15.90;;
86223;SDS011;76887;48.558;12.170;2024-03-22T06:11:33;26.33;;;14.00;;
86223;SDS011;76887;48.558;12.170;2024-03-22T06:13:59;27.45;;;14.77;;
86223;SDS011;76887;48.558;12.170;2024-03-22T06:16:25;21.55;;;12.57;;
86223;SDS011;76887;48.558;12.170;2024-03-22T06:18:50;28.50;;;15.48;;
86223;SDS011;76887;48.558;12.170;2024-03-22T06:21:16;21.65;;;13.07;;
86223;SDS011;76887;48.558;12.170;2024-03-22T06:23:50;24.08;;;12.65;;
86223;SDS011;76887;48.558;12.170;2024-03-22T06:26:16;22.75;;;13.70;;
86223;SDS011;76887;48.558;12.170;2024-03-22T06:28:41;28.17;;;16.15;;
86223;SDS011;76887;48.558;12.170;2024-03-22T06:31:07;31.92;;;16.95;;
86223;SDS011;76887;48.558;12.170;2024-03-22T06:33:33;34.42;;;18.30;;
86223;SDS011;76887;48.558;12.170;2024-03-22T06:35:59;32.10;;;16.90;;
86223;SDS011;76887;48.558;12.170;2024-03-22T06:38:25;34.85;;;18.77;;
86223;SDS011;76887;48.558;12.170;2024-03-22T06:40:50;28.10;;;15.35;;
86223;SDS011;76887;48.558;12.170;2024-03-22T06:43:16;31.23;;;16.42;;
86223;SDS011;76887;48.558;12.170;2024-03-22T06:45:41;29.20;;;14.98;;
86223;SDS011;76887;48.558;12.170;2024-03-22T06:48:07;28.95;;;18.23;;
86223;SDS011;76887;48.558;12.170;2024-03-22T06:50:33;32.45;;;18.40;;
86223;SDS011;76887;48.558;12.170;2024-03-22T06:52:58;31.23;;;17.92;;
86223;SDS011;76887;48.558;12.170;2024-03-22T06:55:24;31.30;;;17.58;;
86223;SDS011;76887;48.558;12.170;2024-03-22T06:57:49;28.30;;;16.15;;
86223;SDS011;76887;48.558;12.170;2024-03-22T07:00:15;24.00;;;14.43;;
86223;SDS011;76887;48.558;12.170;2024-03-22T07:02:41;29.25;;;17.20;;
86223;SDS011;76887;48.558;12.170;2024-03-22T07:05:07;28.38;;;15.88;;
86223;SDS011;76887;48.558;12.170;2024-03-22T07:07:34;28.63;;;16.13;;
86223;SDS011;76887;48.558;12.170;2024-03-22T07:10:00;25.88;;;16.52;;
86223;SDS011;76887;48.558;12.170;2024-03-22T07:12:26;22.52;;;12.55;;
86223;SDS011;76887;48.558;12.170;2024-03-22T07:14:51;25.40;;;14.30;;
86223;SDS011;76887;48.558;12.170;2024-03-22T07:17:17;24.80;;;14.60;;
86223;SDS011;76887;48.558;12.170;2024-03-22T07:19:42;26.65;;;14.60;;
86223;SDS011;76887;48.558;12.170;2024-03-22T07:22:08;24.23;;;13.60;;
86223;SDS011;76887;48.558;12.170;2024-03-22T07:24:34;29.45;;;15.60;;
86223;SDS011;76887;48.558;12.170;2024-03-22T07:26:59;22.77;;;13.48;;
86223;SDS011;76887;48.558;12.170;2024-03-22T07:29:25;20.35;;;13.45;;
86223;SDS011;76887;48.558;12.170;2024-03-22T07:31:50;21.42;;;11.63;;
86223;SDS011;76887;48.558;12.170;2024-03-22T07:34:16;22.48;;;13.70;;
86223;SDS011;76887;48.558;12.170;2024-03-22T07:36:41;22.48;;;12.77;;
86223;SDS011;76887;48.558;12.170;2024-03-22T07:39:07;21.15;;;11.40;;
86223;SDS011;76887;48.558;12.170;2024-03-22T07:41:33;20.52;;;12.15;;
86223;SDS011;76887;48.558;12.170;2024-03-22T07:44:01;19.88;;;11.27;;
86223;SDS011;76887;48.558;12.170;2024-03-22T07:46:28;20.10;;;10.85;;
86223;SDS011;76887;48.558;12.170;2024-03-22T07:48:53;19.30;;;11.35;;
86223;SDS011;76887;48.558;12.170;2024-03-22T07:51:19;18.98;;;11.00;;
86223;SDS011;76887;48.558;12.170;2024-03-22T07:53:45;17.58;;;9.23;;
86223;SDS011;76887;48.558;12.170;2024-03-22T07:56:11;18.98;;;11.93;;
86223;SDS011;76887;48.558;12.170;2024-03-22T07:58:40;20.50;;;12.20;;
86223;SDS011;76887;48.558;12.170;2024-03-22T08:01:05;19.67;;;11.13;;
86223;SDS011;76887;48.558;12.170;2024-03-22T08:03:31;25.92;;;12.85;;
86223;SDS011;76887;48.558;12.170;2024-03-22T08:05:56;18.58;;;10.02;;
86223;SDS011;76887;48.558;12.170;2024-03-22T08:08:22;17.83;;;9.80;;
86223;SDS011;76887;48.558;12.170;2024-03-22T08:10:47;16.92;;;9.70;;
86223;SDS011;76887;48.558;12.170;2024-03-22T08:13:13;19.08;;;10.70;;
86223;SDS011;76887;48.558;12.170;2024-03-22T08:15:39;16.45;;;10.07;;
86223;SDS011;76887;48.558;12.170;2024-03-22T08:18:05;23.90;;;13.80;;
86223;SDS011;76887;48.558;12.170;2024-03-22T08:20:30;18.95;;;10.73;;
86223;SDS011;76887;48.558;12.170;2024-03-22T08:22:59;25.20;;;13.43;;
86223;SDS011;76887;48.558;12.170;2024-03-22T08:25:24;23.52;;;13.25;;
86223;SDS011;76887;48.558;12.170;2024-03-22T08:27:50;24.48;;;13.68;;
86223;SDS011;76887;48.558;12.170;2024-03-22T08:30:18;21.15;;;12.52;;
86223;SDS011;76887;48.558;12.170;2024-03-22T08:32:43;19.58;;;11.70;;
86223;SDS011;76887;48.558;12.170;2024-03-22T08:35:09;15.05;;;9.60;;
86223;SDS011;76887;48.558;12.170;2024-03-22T08:37:34;18.35;;;9.45;;
86223;SDS011;76887;48.558;12.170;2024-03-22T08:40:00;20.42;;;12.63;;
86223;SDS011;76887;48.558;12.170;2024-03-22T08:42:25;16.90;;;10.23;;
86223;SDS011;76887;48.558;12.170;2024-03-22T08:44:51;18.17;;;9.75;;
86223;SDS011;76887;48.558;12.170;2024-03-22T08:47:16;18.38;;;11.25;;
86223;SDS011;76887;48.558;12.170;2024-03-22T08:49:42;21.85;;;13.25;;
86223;SDS011;76887;48.558;12.170;2024-03-22T08:52:09;19.45;;;12.18;;
86223;SDS011;76887;48.558;12.170;2024-03-22T08:54:35;18.35;;;9.95;;
86223;SDS011;76887;48.558;12.170;2024-03-22T08:57:01;20.23;;;12.93;;
86223;SDS011;76887;48.558;12.170;2024-03-22T08:59:27;14.43;;;8.88;;
86223;SDS011;76887;48.558;12.170;2024-03-22T09:01:52;16.55;;;9.13;;
86223;SDS011;76887;48.558;12.170;2024-03-22T09:04:18;18.00;;;11.52;;
86223;SDS011;76887;48.558;12.170;2024-03-22T09:06:44;18.38;;;12.02;;
86223;SDS011;76887;48.558;12.170;2024-03-22T09:09:10;19.15;;;11.85;;
86223;SDS011;76887;48.558;12.170;2024-03-22T09:11:36;20.40;;;11.95;;
86223;SDS011;76887;48.558;12.170;2024-03-22T09:14:02;16.33;;;8.80;;
86223;SDS011;76887;48.558;12.170;2024-03-22T09:16:27;15.52;;;9.82;;
86223;SDS011;76887;48.558;12.170;2024-03-22T09:18:53;20.25;;;11.25;;
86223;SDS011;76887;48.558;12.170;2024-03-22T09:21:19;15.07;;;9.48;;
86223;SDS011;76887;48.558;12.170;2024-03-22T09:23:45;15.32;;;9.48;;
86223;SDS011;76887;48.558;12.170;2024-03-22T09:26:10;21.90;;;12.63;;
86223;SDS011;76887;48.558;12.170;2024-03-22T09:28:36;18.40;;;11.45;;
86223;SDS011;76887;48.558;12.170;2024-03-22T09:31:05;18.75;;;10.63;;
86223;SDS011;76887;48.558;12.170;2024-03-22T09:33:32;21.08;;;11.88;;
86223;SDS011;76887;48.558;12.170;2024-03-22T09:35:58;18.23;;;10.80;;
86223;SDS011;76887;48.558;12.170;2024-03-22T09:38:24;14.93;;;8.50;;
86223;SDS011;76887;48.558;12.170;2024-03-22T09:40:51;14.45;;;8.30;;
86223;SDS011;76887;48.558;12.170;2024-03-22T09:43:19;18.38;;;11.52;;
86223;SDS011;76887;48.558;12.170;2024-03-22T09:45:51;20.67;;;13.20;;
86223;SDS011;76887;48.558;12.170;2024-03-22T09:48:18;17.00;;;11.43;;
86223;SDS011;76887;48.558;12.170;2024-03-22T09:50:44;19.35;;;12.32;;
86223;SDS011;76887;48.558;12.170;2024-03-22T09:53:17;22.10;;;13.18;;
86223;SDS011;76887;48.558;12.170;2024-03-22T09:55:45;16.67;;;9.98;;
86223;SDS011;76887;48.558;12.170;2024-03-22T09:58:12;19.13;;;11.45;;
86223;SDS011;76887;48.558;12.170;2024-03-22T10:00:37;19.15;;;11.52;;
86223;SDS011;76887;48.558;12.170;2024-03-22T10:03:03;18.35;;;12.10;;
86223;SDS011;76887;48.558;12.170;2024-03-22T10:05:30;12.48;;;8.15;;
86223;SDS011;76887;48.558;12.170;2024-03-22T10:07:56;20.35;;;12.13;;
86223;SDS011;76887;48.558;12.170;2024-03-22T10:10:21;16.65;;;10.48;;
86223;SDS011;76887;48.558;12.170;2024-03-22T10:12:48;17.98;;;12.15;;
86223;SDS011;76887;48.558;12.170;2024-03-22T10:15:13;15.85;;;9.63;;
86223;SDS011;76887;48.558;12.170;2024-03-22T10:17:39;18.17;;;11.45;;
86223;SDS011;76887;48.558;12.170;2024-03-22T10:20:05;17.13;;;11.77;;
86223;SDS011;76887;48.558;12.170;2024-03-22T10:22:38;15.27;;;9.50;;
86223;SDS011;76887;48.558;12.170;2024-03-22T10:25:06;18.75;;;12.43;;
86223;SDS011;76887;48.558;12.170;2024-03-22T10:27:32;18.00;;;11.65;;
86223;SDS011;76887;48.558;12.170;2024-03-22T10:29:57;17.38;;;11.63;;
86223;SDS011;76887;48.558;12.170;2024-03-22T10:32:24;19.65;;;11.85;;
86223;SDS011;76887;48.558;12.170;2024-03-22T10:34:50;14.05;;;8.00;;
86223;SDS011;76887;48.558;12.170;2024-03-22T10:37:16;17.88;;;11.88;;
86223;SDS011;76887;48.558;12.170;2024-03-22T10:39:42;15.05;;;9.70;;
86223;SDS011;76887;48.558;12.170;2024-03-22T10:42:10;13.65;;;8.27;;
86223;SDS011;76887;48.558;12.170;2024-03-22T10:44:37;12.93;;;8.38;;
86223;SDS011;76887;48.558;12.170;2024-03-22T10:47:04;19.08;;;11.68;;
86223;SDS011;76887;48.558;12.170;2024-03-22T10:49:31;16.30;;;11.27;;
86223;SDS011;76887;48.558;12.170;2024-03-22T10:52:01;13.43;;;8.32;;
86223;SDS011;76887;48.558;12.170;2024-03-22T10:54:30;14.73;;;9.60;;
86223;SDS011;76887;48.558;12.170;2024-03-22T10:57:00;17.42;;;11.15;;
86223;SDS011;76887;48.558;12.170;2024-03-22T10:59:26;18.33;;;11.68;;
86223;SDS011;76887;48.558;12.170;2024-03-22T11:01:52;15.35;;;10.68;;
86223;SDS011;76887;48.558;12.170;2024-03-22T11:04:19;12.77;;;7.63;;
86223;SDS011;76887;48.558;12.170;2024-03-22T11:06:48;16.20;;;9.70;;
86223;SDS011;76887;48.558;12.170;2024-03-22T11:09:26;14.70;;;9.77;;
86223;SDS011;76887;48.558;12.170;2024-03-22T11:11:53;10.65;;;5.30;;
86223;SDS011;76887;48.558;12.170;2024-03-22T11:14:19;8.55;;;4.97;;
86223;SDS011;76887;48.558;12.170;2024-03-22T11:16:51;10.50;;;5.25;;
86223;SDS011;76887;48.558;12.170;2024-03-22T11:19:18;13.20;;;7.20;;
86223;SDS011;76887;48.558;12.170;2024-03-22T11:21:43;10.68;;;6.63;;
86223;SDS011;76887;48.558;12.170;2024-03-22T11:24:09;12.52;;;6.38;;
86223;SDS011;76887;48.558;12.170;2024-03-22T11:26:36;13.95;;;6.63;;
86223;SDS011;76887;48.558;12.170;2024-03-22T11:29:02;9.77;;;5.35;;
86223;SDS011;76887;48.558;12.170;2024-03-22T11:31:27;11.43;;;5.85;;
86223;SDS011;76887;48.558;12.170;2024-03-22T11:33:54;11.30;;;6.35;;
86223;SDS011;76887;48.558;12.170;2024-03-22T11:36:20;10.18;;;5.55;;
86223;SDS011;76887;48.558;12.170;2024-03-22T11:38:46;9.55;;;4.45;;
86223;SDS011;76887;48.558;12.170;2024-03-22T11:41:16;7.78;;;4.15;;
86223;SDS011;76887;48.558;12.170;2024-03-22T11:43:42;8.35;;;4.00;;
86223;SDS011;76887;48.558;12.170;2024-03-22T11:46:08;6.82;;;2.97;;
86223;SDS011;76887;48.558;12.170;2024-03-22T11:48:38;5.93;;;2.70;;
86223;SDS011;76887;48.558;12.170;2024-03-22T11:51:07;6.22;;;2.97;;
86223;SDS011;76887;48.558;12.170;2024-03-22T11:53:34;5.85;;;2.92;;
86223;SDS011;76887;48.558;12.170;2024-03-22T11:56:00;7.38;;;2.90;;
86223;SDS011;76887;48.558;12.170;2024-03-22T11:58:29;7.22;;;3.10;;
86223;SDS011;76887;48.558;12.170;2024-03-22T12:00:56;6.50;;;3.00;;
86223;SDS011;76887;48.558;12.170;2024-03-22T12:03:22;7.80;;;3.00;;
86223;SDS011;76887;48.558;12.170;2024-03-22T12:05:48;6.45;;;3.15;;
86223;SDS011;76887;48.558;12.170;2024-03-22T12:08:16;6.45;;;3.40;;
86223;SDS011;76887;48.558;12.170;2024-03-22T12:10:43;7.05;;;3.65;;
86223;SDS011;76887;48.558;12.170;2024-03-22T12:13:09;8.73;;;3.30;;
86223;SDS011;76887;48.558;12.170;2024-03-22T12:15:35;6.97;;;3.65;;
86223;SDS011;76887;48.558;12.170;2024-03-22T12:18:01;7.40;;;3.95;;
86223;SDS011;76887;48.558;12.170;2024-03-22T12:20:28;7.93;;;4.15;;
86223;SDS011;76887;48.558;12.170;2024-03-22T12:22:53;7.50;;;3.40;;
86223;SDS011;76887;48.558;12.170;2024-03-22T12:25:19;5.90;;;2.63;;
86223;SDS011;76887;48.558;12.170;2024-03-22T12:27:46;7.68;;;4.00;;
86223;SDS011;76887;48.558;12.170;2024-03-22T12:30:11;8.63;;;4.20;;
86223;SDS011;76887;48.558;12.170;2024-03-22T12:32:37;7.75;;;4.30;;
86223;SDS011;76887;48.558;12.170;2024-03-22T12:35:03;9.05;;;4.32;;
86223;SDS011;76887;48.558;12.170;2024-03-22T12:37:29;7.03;;;3.95;;
86223;SDS011;76887;48.558;12.170;2024-03-22T12:39:55;10.65;;;3.58;;
86223;SDS011;76887;48.558;12.170;2024-03-22T12:42:21;6.43;;;3.60;;
86223;SDS011;76887;48.558;12.170;2024-03-22T12:44:46;4.90;;;2.20;;
86223;SDS011;76887;48.558;12.170;2024-03-22T12:47:12;6.05;;;2.45;;
86223;SDS011;76887;48.558;12.170;2024-03-22T12:49:38;6.95;;;2.97;;
86223;SDS011;76887;48.558;12.170;2024-03-22T12:52:03;6.22;;;2.90;;
86223;SDS011;76887;48.558;12.170;2024-03-22T12:54:29;7.55;;;4.25;;
86223;SDS011;76887;48.558;12.170;2024-03-22T12:56:55;7.03;;;3.40;;
86223;SDS011;76887;48.558;12.170;2024-03-22T12:59:20;6.43;;;3.20;;
86223;SDS011;76887;48.558;12.170;2024-03-22T13:01:46;6.97;;;3.53;;
86223;SDS011;76887;48.558;12.170;2024-03-22T13:04:12;5.45;;;2.60;;
86223;SDS011;76887;48.558;12.170;2024-03-22T13:06:37;7.20;;;3.55;;
86223;SDS011;76887;48.558;12.170;2024-03-22T13:09:03;7.18;;;3.60;;
86223;SDS011;76887;48.558;12.170;2024-03-22T13:11:31;7.80;;;3.90;;
86223;SDS011;76887;48.558;12.170;2024-03-22T13:13:57;8.43;;;4.22;;
86223;SDS011;76887;48.558;12.170;2024-03-22T13:16:22;7.60;;;4.00;;
86223;SDS011;76887;48.558;12.170;2024-03-22T13:18:48;5.63;;;2.55;;
86223;SDS011;76887;48.558;12.170;2024-03-22T13:21:13;6.20;;;2.70;;
86223;SDS011;76887;48.558;12.170;2024-03-22T13:23:39;6.55;;;3.70;;
86223;SDS011;76887;48.558;12.170;2024-03-22T13:26:05;6.78;;;2.42;;
86223;SDS011;76887;48.558;12.170;2024-03-22T13:28:32;6.78;;;3.05;;
86223;SDS011;76887;48.558;12.170;2024-03-22T13:31:01;6.57;;;3.80;;
86223;SDS011;76887;48.558;12.170;2024-03-22T13:33:28;8.20;;;3.70;;
86223;SDS011;76887;48.558;12.170;2024-03-22T13:35:55;4.97;;;2.50;;
86223;SDS011;76887;48.558;12.170;2024-03-22T13:38:21;6.55;;;3.25;;
86223;SDS011;76887;48.558;12.170;2024-03-22T13:40:56;7.20;;;3.33;;
86223;SDS011;76887;48.558;12.170;2024-03-22T13:43:22;7.10;;;3.63;;
86223;SDS011;76887;48.558;12.170;2024-03-22T13:45:50;7.47;;;3.80;;
86223;SDS011;76887;48.558;12.170;2024-03-22T13:48:19;7.53;;;3.40;;
86223;SDS011;76887;48.558;12.170;2024-03-22T13:50:49;7.15;;;3.80;;
86223;SDS011;76887;48.558;12.170;2024-03-22T13:53:18;7.50;;;3.70;;
86223;SDS011;76887;48.558;12.170;2024-03-22T13:55:44;7.05;;;4.00;;
86223;SDS011;76887;48.558;12.170;2024-03-22T13:58:10;6.28;;;3.20;;
86223;SDS011;76887;48.558;12.170;2024-03-22T14:00:37;7.15;;;3.45;;
86223;SDS011;76887;48.558;12.170;2024-03-22T14:03:03;7.28;;;3.20;;
86223;SDS011;76887;48.558;12.170;2024-03-22T14:05:28;6.85;;;2.60;;
86223;SDS011;76887;48.558;12.170;2024-03-22T14:07:54;5.03;;;2.80;;
86223;SDS011;76887;48.558;12.170;2024-03-22T14:10:20;7.43;;;3.60;;
86223;SDS011;76887;48.558;12.170;2024-03-22T14:12:46;6.43;;;2.58;;
86223;SDS011;76887;48.558;12.170;2024-03-22T14:15:12;7.43;;;3.15;;